sensor_id;sensor_type;location;lat;lon;timestamp;P1;P2;P0
47741;PMS5003;33504;52.066;6.096;2024-02-23T00:01:45;1;1;
47741;PMS5003;33504;52.066;6.096;2024-02-23T00:04:12;1;1;
47741;PMS5003;33504;52.066;6.096;2024-02-23T00:06:39;3;2;
47741;PMS5003;33504;52.066;6.096;2024-02-23T00:09:06;1;1;
47741;PMS5003;33504;52.066;6.096;2024-02-23T00:11:32;2;2;
47741;PMS5003;33504;52.066;6.096;2024-02-23T00:13:59;1;1;
47741;PMS5003;33504;52.066;6.096;2024-02-23T00:16:26;1;1;
47741;PMS5003;33504;52.066;6.096;2024-02-23T00:18:53;2;2;
47741;PMS5003;33504;52.066;6.096;2024-02-23T00:21:20;2;1;
47741;PMS5003;33504;52.066;6.096;2024-02-23T00:23:47;2;2;
47741;PMS5003;33504;52.066;6.096;2024-02-23T00:26:14;1;1;
47741;PMS5003;33504;52.066;6.096;2024-02-23T00:28:41;1;1;
47741;PMS5003;33504;52.066;6.096;2024-02-23T00:31:08;2;1;
47741;PMS5003;33504;52.066;6.096;2024-02-23T00:33:35;1;0;
47741;PMS5003;33504;52.066;6.096;2024-02-23T00:36:02;3;2;
47741;PMS5003;33504;52.066;6.096;2024-02-23T00:38:29;1;1;
47741;PMS5003;33504;52.066;6.096;2024-02-23T00:40:56;1;1;
47741;PMS5003;33504;52.066;6.096;2024-02-23T00:43:23;3;3;
47741;PMS5003;33504;52.066;6.096;2024-02-23T00:45:50;1;1;
47741;PMS5003;33504;52.066;6.096;2024-02-23T00:48:17;2;2;
47741;PMS5003;33504;52.066;6.096;2024-02-23T00:50:44;2;2;
47741;PMS5003;33504;52.066;6.096;2024-02-23T00:53:12;4;3;
47741;PMS5003;33504;52.066;6.096;2024-02-23T00:55:39;4;3;
47741;PMS5003;33504;52.066;6.096;2024-02-23T00:58:06;2;2;
47741;PMS5003;33504;52.066;6.096;2024-02-23T01:00:32;4;4;
47741;PMS5003;33504;52.066;6.096;2024-02-23T01:02:59;4;3;
47741;PMS5003;33504;52.066;6.096;2024-02-23T01:05:26;4;4;
47741;PMS5003;33504;52.066;6.096;2024-02-23T01:07:53;3;3;
47741;PMS5003;33504;52.066;6.096;2024-02-23T01:10:20;3;3;
47741;PMS5003;33504;52.066;6.096;2024-02-23T01:12:47;2;2;
47741;PMS5003;33504;52.066;6.096;2024-02-23T01:15:14;1;1;
47741;PMS5003;33504;52.066;6.096;2024-02-23T01:17:41;0;0;
47741;PMS5003;33504;52.066;6.096;2024-02-23T01:20:08;0;0;
47741;PMS5003;33504;52.066;6.096;2024-02-23T01:22:35;1;1;
47741;PMS5003;33504;52.066;6.096;2024-02-23T01:25:03;0;0;
47741;PMS5003;33504;52.066;6.096;2024-02-23T01:27:30;1;1;
47741;PMS5003;33504;52.066;6.096;2024-02-23T01:29:57;1;1;
47741;PMS5003;33504;52.066;6.096;2024-02-23T01:32:24;3;3;
47741;PMS5003;33504;52.066;6.096;2024-02-23T01:34:51;5;5;
47741;PMS5003;33504;52.066;6.096;2024-02-23T01:37:18;6;6;
47741;PMS5003;33504;52.066;6.096;2024-02-23T01:39:45;7;7;
47741;PMS5003;33504;52.066;6.096;2024-02-23T01:42:12;13;12;
47741;PMS5003;33504;52.066;6.096;2024-02-23T01:44:39;14;14;
47741;PMS5003;33504;52.066;6.096;2024-02-23T01:47:06;16;15;
47741;PMS5003;33504;52.066;6.096;2024-02-23T01:49:33;11;11;
47741;PMS5003;33504;52.066;6.096;2024-02-23T01:52:01;11;10;
47741;PMS5003;33504;52.066;6.096;2024-02-23T01:54:29;12;12;
47741;PMS5003;33504;52.066;6.096;2024-02-23T01:56:58;11;11;
47741;PMS5003;33504;52.066;6.096;2024-02-23T01:59:25;10;10;
47741;PMS5003;33504;52.066;6.096;2024-02-23T02:01:54;10;10;
47741;PMS5003;33504;52.066;6.096;2024-02-23T02:04:22;12;10;
47741;PMS5003;33504;52.066;6.096;2024-02-23T02:06:49;8;7;
47741;PMS5003;33504;52.066;6.096;2024-02-23T02:09:16;8;8;
47741;PMS5003;33504;52.066;6.096;2024-02-23T02:11:45;9;8;
47741;PMS5003;33504;52.066;6.096;2024-02-23T02:14:13;7;7;
47741;PMS5003;33504;52.066;6.096;2024-02-23T02:16:40;7;7;
47741;PMS5003;33504;52.066;6.096;2024-02-23T02:19:07;6;6;
47741;PMS5003;33504;52.066;6.096;2024-02-23T02:21:35;7;6;
47741;PMS5003;33504;52.066;6.096;2024-02-23T02:24:04;5;5;
47741;PMS5003;33504;52.066;6.096;2024-02-23T02:26:32;6;5;
47741;PMS5003;33504;52.066;6.096;2024-02-23T02:29:01;5;4;
47741;PMS5003;33504;52.066;6.096;2024-02-23T02:31:28;5;5;
47741;PMS5003;33504;52.066;6.096;2024-02-23T02:33:55;5;4;
47741;PMS5003;33504;52.066;6.096;2024-02-23T02:36:22;3;3;
47741;PMS5003;33504;52.066;6.096;2024-02-23T02:38:49;2;2;
47741;PMS5003;33504;52.066;6.096;2024-02-23T02:41:16;5;4;
47741;PMS5003;33504;52.066;6.096;2024-02-23T02:43:45;7;6;
47741;PMS5003;33504;52.066;6.096;2024-02-23T02:46:13;4;2;
47741;PMS5003;33504;52.066;6.096;2024-02-23T02:48:40;4;2;
47741;PMS5003;33504;52.066;6.096;2024-02-23T02:51:08;3;3;
47741;PMS5003;33504;52.066;6.096;2024-02-23T02:53:35;3;3;
47741;PMS5003;33504;52.066;6.096;2024-02-23T02:56:05;3;2;
47741;PMS5003;33504;52.066;6.096;2024-02-23T02:58:32;2;2;
47741;PMS5003;33504;52.066;6.096;2024-02-23T03:00:59;2;2;
47741;PMS5003;33504;52.066;6.096;2024-02-23T03:03:26;1;1;
47741;PMS5003;33504;52.066;6.096;2024-02-23T03:05:53;1;1;
47741;PMS5003;33504;52.066;6.096;2024-02-23T03:08:20;2;2;
47741;PMS5003;33504;52.066;6.096;2024-02-23T03:10:47;2;2;
47741;PMS5003;33504;52.066;6.096;2024-02-23T03:13:14;4;1;
47741;PMS5003;33504;52.066;6.096;2024-02-23T03:15:41;3;3;
47741;PMS5003;33504;52.066;6.096;2024-02-23T03:18:08;2;2;
47741;PMS5003;33504;52.066;6.096;2024-02-23T03:20:35;2;2;
47741;PMS5003;33504;52.066;6.096;2024-02-23T03:23:02;3;3;
47741;PMS5003;33504;52.066;6.096;2024-02-23T03:25:29;6;3;
47741;PMS5003;33504;52.066;6.096;2024-02-23T03:27:56;2;2;
47741;PMS5003;33504;52.066;6.096;2024-02-23T03:30:23;2;2;
47741;PMS5003;33504;52.066;6.096;2024-02-23T03:32:51;2;2;
47741;PMS5003;33504;52.066;6.096;2024-02-23T03:35:18;3;3;
47741;PMS5003;33504;52.066;6.096;2024-02-23T03:37:45;4;2;
47741;PMS5003;33504;52.066;6.096;2024-02-23T03:40:12;4;3;
47741;PMS5003;33504;52.066;6.096;2024-02-23T03:42:39;2;2;
47741;PMS5003;33504;52.066;6.096;2024-02-23T03:45:06;2;2;
47741;PMS5003;33504;52.066;6.096;2024-02-23T03:47:34;2;2;
47741;PMS5003;33504;52.066;6.096;2024-02-23T03:50:01;3;3;
47741;PMS5003;33504;52.066;6.096;2024-02-23T03:52:28;1;1;
47741;PMS5003;33504;52.066;6.096;2024-02-23T03:54:54;1;1;
47741;PMS5003;33504;52.066;6.096;2024-02-23T03:57:21;1;1;
47741;PMS5003;33504;52.066;6.096;2024-02-23T03:59:51;2;2;
47741;PMS5003;33504;52.066;6.096;2024-02-23T04:02:19;2;1;
47741;PMS5003;33504;52.066;6.096;2024-02-23T04:04:46;1;1;
47741;PMS5003;33504;52.066;6.096;2024-02-23T04:07:13;3;2;
47741;PMS5003;33504;52.066;6.096;2024-02-23T04:09:40;3;2;
47741;PMS5003;33504;52.066;6.096;2024-02-23T04:12:07;3;1;
47741;PMS5003;33504;52.066;6.096;2024-02-23T04:14:34;2;2;
47741;PMS5003;33504;52.066;6.096;2024-02-23T04:17:01;3;3;
47741;PMS5003;33504;52.066;6.096;2024-02-23T04:19:29;1;1;
47741;PMS5003;33504;52.066;6.096;2024-02-23T04:21:56;2;2;
47741;PMS5003;33504;52.066;6.096;2024-02-23T04:24:23;2;2;
47741;PMS5003;33504;52.066;6.096;2024-02-23T04:26:49;3;3;
47741;PMS5003;33504;52.066;6.096;2024-02-23T04:29:16;2;2;
47741;PMS5003;33504;52.066;6.096;2024-02-23T04:31:43;3;3;
47741;PMS5003;33504;52.066;6.096;2024-02-23T04:34:10;2;2;
47741;PMS5003;33504;52.066;6.096;2024-02-23T04:36:37;4;2;
47741;PMS5003;33504;52.066;6.096;2024-02-23T04:39:04;6;5;
47741;PMS5003;33504;52.066;6.096;2024-02-23T04:41:31;2;1;
47741;PMS5003;33504;52.066;6.096;2024-02-23T04:43:58;3;2;
47741;PMS5003;33504;52.066;6.096;2024-02-23T04:46:25;4;3;
47741;PMS5003;33504;52.066;6.096;2024-02-23T04:48:52;3;2;
47741;PMS5003;33504;52.066;6.096;2024-02-23T04:51:19;3;2;
47741;PMS5003;33504;52.066;6.096;2024-02-23T04:53:46;4;3;
47741;PMS5003;33504;52.066;6.096;2024-02-23T04:56:13;4;3;
47741;PMS5003;33504;52.066;6.096;2024-02-23T04:58:40;3;3;
47741;PMS5003;33504;52.066;6.096;2024-02-23T05:01:07;2;2;
47741;PMS5003;33504;52.066;6.096;2024-02-23T05:03:34;2;2;
47741;PMS5003;33504;52.066;6.096;2024-02-23T05:06:02;3;3;
47741;PMS5003;33504;52.066;6.096;2024-02-23T05:08:29;2;2;
47741;PMS5003;33504;52.066;6.096;2024-02-23T05:10:57;4;3;
47741;PMS5003;33504;52.066;6.096;2024-02-23T05:13:24;2;2;
47741;PMS5003;33504;52.066;6.096;2024-02-23T05:15:54;3;3;
47741;PMS5003;33504;52.066;6.096;2024-02-23T05:18:22;2;2;
47741;PMS5003;33504;52.066;6.096;2024-02-23T05:20:49;5;4;
47741;PMS5003;33504;52.066;6.096;2024-02-23T05:23:15;3;2;
47741;PMS5003;33504;52.066;6.096;2024-02-23T05:25:42;3;2;
47741;PMS5003;33504;52.066;6.096;2024-02-23T05:28:09;2;2;
47741;PMS5003;33504;52.066;6.096;2024-02-23T05:30:36;2;2;
47741;PMS5003;33504;52.066;6.096;2024-02-23T05:33:03;4;3;
47741;PMS5003;33504;52.066;6.096;2024-02-23T05:35:31;2;2;
47741;PMS5003;33504;52.066;6.096;2024-02-23T05:37:58;3;3;
47741;PMS5003;33504;52.066;6.096;2024-02-23T05:40:25;6;6;
47741;PMS5003;33504;52.066;6.096;2024-02-23T05:42:52;3;2;
47741;PMS5003;33504;52.066;6.096;2024-02-23T05:45:19;2;2;
47741;PMS5003;33504;52.066;6.096;2024-02-23T05:47:47;4;3;
47741;PMS5003;33504;52.066;6.096;2024-02-23T05:50:14;5;3;
47741;PMS5003;33504;52.066;6.096;2024-02-23T05:52:40;4;3;
47741;PMS5003;33504;52.066;6.096;2024-02-23T05:55:07;5;3;
47741;PMS5003;33504;52.066;6.096;2024-02-23T05:57:35;2;2;
47741;PMS5003;33504;52.066;6.096;2024-02-23T06:00:02;4;4;
47741;PMS5003;33504;52.066;6.096;2024-02-23T06:02:30;4;4;
47741;PMS5003;33504;52.066;6.096;2024-02-23T06:04:57;2;2;
47741;PMS5003;33504;52.066;6.096;2024-02-23T06:07:24;6;4;
47741;PMS5003;33504;52.066;6.096;2024-02-23T06:09:50;6;4;
47741;PMS5003;33504;52.066;6.096;2024-02-23T06:12:17;5;4;
47741;PMS5003;33504;52.066;6.096;2024-02-23T06:14:45;4;4;
47741;PMS5003;33504;52.066;6.096;2024-02-23T06:17:12;3;2;
47741;PMS5003;33504;52.066;6.096;2024-02-23T06:19:39;3;3;
47741;PMS5003;33504;52.066;6.096;2024-02-23T06:22:05;2;2;
47741;PMS5003;33504;52.066;6.096;2024-02-23T06:24:32;4;4;
47741;PMS5003;33504;52.066;6.096;2024-02-23T06:26:59;5;3;
47741;PMS5003;33504;52.066;6.096;2024-02-23T06:29:26;5;4;
47741;PMS5003;33504;52.066;6.096;2024-02-23T06:31:53;3;3;
47741;PMS5003;33504;52.066;6.096;2024-02-23T06:34:20;4;3;
47741;PMS5003;33504;52.066;6.096;2024-02-23T06:36:47;6;3;
47741;PMS5003;33504;52.066;6.096;2024-02-23T06:39:14;3;3;
47741;PMS5003;33504;52.066;6.096;2024-02-23T06:41:41;2;2;
47741;PMS5003;33504;52.066;6.096;2024-02-23T06:44:08;3;3;
47741;PMS5003;33504;52.066;6.096;2024-02-23T06:46:35;6;4;
47741;PMS5003;33504;52.066;6.096;2024-02-23T06:49:02;4;2;
47741;PMS5003;33504;52.066;6.096;2024-02-23T06:51:30;5;4;
47741;PMS5003;33504;52.066;6.096;2024-02-23T06:53:57;3;2;
47741;PMS5003;33504;52.066;6.096;2024-02-23T06:56:24;3;3;
47741;PMS5003;33504;52.066;6.096;2024-02-23T06:58:52;3;3;
47741;PMS5003;33504;52.066;6.096;2024-02-23T07:01:19;2;2;
47741;PMS5003;33504;52.066;6.096;2024-02-23T07:03:47;5;2;
47741;PMS5003;33504;52.066;6.096;2024-02-23T07:06:13;6;4;
47741;PMS5003;33504;52.066;6.096;2024-02-23T07:08:41;3;3;
47741;PMS5003;33504;52.066;6.096;2024-02-23T07:11:08;2;2;
47741;PMS5003;33504;52.066;6.096;2024-02-23T07:13:35;3;1;
47741;PMS5003;33504;52.066;6.096;2024-02-23T07:16:02;3;2;
47741;PMS5003;33504;52.066;6.096;2024-02-23T07:18:29;2;2;
47741;PMS5003;33504;52.066;6.096;2024-02-23T07:20:56;3;2;
47741;PMS5003;33504;52.066;6.096;2024-02-23T07:23:23;2;2;
47741;PMS5003;33504;52.066;6.096;2024-02-23T07:25:50;2;2;
47741;PMS5003;33504;52.066;6.096;2024-02-23T07:28:18;2;2;
47741;PMS5003;33504;52.066;6.096;2024-02-23T07:30:45;2;2;
47741;PMS5003;33504;52.066;6.096;2024-02-23T07:33:12;3;2;
47741;PMS5003;33504;52.066;6.096;2024-02-23T07:35:40;3;3;
47741;PMS5003;33504;52.066;6.096;2024-02-23T07:38:07;3;2;
47741;PMS5003;33504;52.066;6.096;2024-02-23T07:40:35;2;1;
47741;PMS5003;33504;52.066;6.096;2024-02-23T07:43:03;3;3;
47741;PMS5003;33504;52.066;6.096;2024-02-23T07:45:30;1;1;
47741;PMS5003;33504;52.066;6.096;2024-02-23T07:47:57;1;1;
47741;PMS5003;33504;52.066;6.096;2024-02-23T07:50:24;2;1;
47741;PMS5003;33504;52.066;6.096;2024-02-23T07:52:51;2;2;
47741;PMS5003;33504;52.066;6.096;2024-02-23T07:55:18;3;2;
47741;PMS5003;33504;52.066;6.096;2024-02-23T07:57:45;2;2;
47741;PMS5003;33504;52.066;6.096;2024-02-23T08:00:13;3;2;
47741;PMS5003;33504;52.066;6.096;2024-02-23T08:02:41;3;2;
47741;PMS5003;33504;52.066;6.096;2024-02-23T08:05:09;2;2;
47741;PMS5003;33504;52.066;6.096;2024-02-23T08:07:36;4;4;
47741;PMS5003;33504;52.066;6.096;2024-02-23T08:10:04;4;3;
47741;PMS5003;33504;52.066;6.096;2024-02-23T08:12:31;2;2;
47741;PMS5003;33504;52.066;6.096;2024-02-23T08:14:58;2;2;
47741;PMS5003;33504;52.066;6.096;2024-02-23T08:17:25;3;2;
47741;PMS5003;33504;52.066;6.096;2024-02-23T08:19:52;3;2;
47741;PMS5003;33504;52.066;6.096;2024-02-23T08:22:19;2;2;
47741;PMS5003;33504;52.066;6.096;2024-02-23T08:24:46;3;3;
47741;PMS5003;33504;52.066;6.096;2024-02-23T08:27:12;2;1;
47741;PMS5003;33504;52.066;6.096;2024-02-23T08:29:39;1;1;
47741;PMS5003;33504;52.066;6.096;2024-02-23T08:32:07;2;2;
47741;PMS5003;33504;52.066;6.096;2024-02-23T08:34:34;3;2;
47741;PMS5003;33504;52.066;6.096;2024-02-23T08:37:01;6;2;
47741;PMS5003;33504;52.066;6.096;2024-02-23T08:39:28;4;3;
47741;PMS5003;33504;52.066;6.096;2024-02-23T08:41:55;3;2;
47741;PMS5003;33504;52.066;6.096;2024-02-23T08:44:23;3;3;
47741;PMS5003;33504;52.066;6.096;2024-02-23T08:46:50;2;2;
47741;PMS5003;33504;52.066;6.096;2024-02-23T08:49:17;3;2;
47741;PMS5003;33504;52.066;6.096;2024-02-23T08:51:44;2;2;
47741;PMS5003;33504;52.066;6.096;2024-02-23T08:54:11;2;1;
47741;PMS5003;33504;52.066;6.096;2024-02-23T08:56:38;3;1;
47741;PMS5003;33504;52.066;6.096;2024-02-23T08:59:06;2;1;
47741;PMS5003;33504;52.066;6.096;2024-02-23T09:01:33;3;3;
47741;PMS5003;33504;52.066;6.096;2024-02-23T09:03:59;2;2;
47741;PMS5003;33504;52.066;6.096;2024-02-23T09:06:26;2;1;
47741;PMS5003;33504;52.066;6.096;2024-02-23T09:08:53;2;2;
47741;PMS5003;33504;52.066;6.096;2024-02-23T09:11:20;1;1;
47741;PMS5003;33504;52.066;6.096;2024-02-23T09:13:48;2;1;
47741;PMS5003;33504;52.066;6.096;2024-02-23T09:16:15;3;2;
47741;PMS5003;33504;52.066;6.096;2024-02-23T09:18:42;3;2;
47741;PMS5003;33504;52.066;6.096;2024-02-23T09:21:09;2;2;
47741;PMS5003;33504;52.066;6.096;2024-02-23T09:23:36;2;2;
47741;PMS5003;33504;52.066;6.096;2024-02-23T09:26:08;0;0;
47741;PMS5003;33504;52.066;6.096;2024-02-23T09:28:35;3;2;
47741;PMS5003;33504;52.066;6.096;2024-02-23T09:31:02;1;0;
47741;PMS5003;33504;52.066;6.096;2024-02-23T09:33:30;2;2;
47741;PMS5003;33504;52.066;6.096;2024-02-23T09:35:57;1;1;
47741;PMS5003;33504;52.066;6.096;2024-02-23T09:38:24;1;1;
47741;PMS5003;33504;52.066;6.096;2024-02-23T09:40:51;2;2;
47741;PMS5003;33504;52.066;6.096;2024-02-23T09:43:18;3;2;
47741;PMS5003;33504;52.066;6.096;2024-02-23T09:45:50;2;2;
47741;PMS5003;33504;52.066;6.096;2024-02-23T09:48:17;2;2;
47741;PMS5003;33504;52.066;6.096;2024-02-23T09:50:46;3;3;
47741;PMS5003;33504;52.066;6.096;2024-02-23T09:53:13;2;2;
47741;PMS5003;33504;52.066;6.096;2024-02-23T09:55:42;3;2;
47741;PMS5003;33504;52.066;6.096;2024-02-23T09:58:11;2;2;
47741;PMS5003;33504;52.066;6.096;2024-02-23T10:00:40;2;1;
47741;PMS5003;33504;52.066;6.096;2024-02-23T10:03:08;2;2;
47741;PMS5003;33504;52.066;6.096;2024-02-23T10:05:35;2;2;
47741;PMS5003;33504;52.066;6.096;2024-02-23T10:08:02;1;1;
47741;PMS5003;33504;52.066;6.096;2024-02-23T10:10:30;2;2;
47741;PMS5003;33504;52.066;6.096;2024-02-23T10:12:59;2;2;
47741;PMS5003;33504;52.066;6.096;2024-02-23T10:15:28;2;2;
47741;PMS5003;33504;52.066;6.096;2024-02-23T10:17:56;1;1;
47741;PMS5003;33504;52.066;6.096;2024-02-23T10:20:22;2;1;
47741;PMS5003;33504;52.066;6.096;2024-02-23T10:22:49;4;4;
47741;PMS5003;33504;52.066;6.096;2024-02-23T10:25:16;3;2;
47741;PMS5003;33504;52.066;6.096;2024-02-23T10:27:44;1;1;
47741;PMS5003;33504;52.066;6.096;2024-02-23T10:30:11;3;3;
47741;PMS5003;33504;52.066;6.096;2024-02-23T10:32:40;2;2;
47741;PMS5003;33504;52.066;6.096;2024-02-23T10:35:09;2;2;
47741;PMS5003;33504;52.066;6.096;2024-02-23T10:37:39;4;3;
47741;PMS5003;33504;52.066;6.096;2024-02-23T10:40:09;3;2;
47741;PMS5003;33504;52.066;6.096;2024-02-23T10:42:39;1;1;
47741;PMS5003;33504;52.066;6.096;2024-02-23T10:45:09;4;4;
47741;PMS5003;33504;52.066;6.096;2024-02-23T10:47:37;4;4;
47741;PMS5003;33504;52.066;6.096;2024-02-23T10:50:05;3;3;
47741;PMS5003;33504;52.066;6.096;2024-02-23T10:52:33;3;3;
47741;PMS5003;33504;52.066;6.096;2024-02-23T10:55:01;7;6;
47741;PMS5003;33504;52.066;6.096;2024-02-23T10:57:29;4;3;
47741;PMS5003;33504;52.066;6.096;2024-02-23T10:59:57;3;3;
47741;PMS5003;33504;52.066;6.096;2024-02-23T11:02:24;2;1;
47741;PMS5003;33504;52.066;6.096;2024-02-23T11:04:54;2;2;
47741;PMS5003;33504;52.066;6.096;2024-02-23T11:07:24;2;2;
47741;PMS5003;33504;52.066;6.096;2024-02-23T11:09:53;2;1;
47741;PMS5003;33504;52.066;6.096;2024-02-23T11:12:25;3;3;
47741;PMS5003;33504;52.066;6.096;2024-02-23T11:14:56;2;2;
47741;PMS5003;33504;52.066;6.096;2024-02-23T11:17:25;3;2;
47741;PMS5003;33504;52.066;6.096;2024-02-23T11:19:54;1;1;
47741;PMS5003;33504;52.066;6.096;2024-02-23T11:22:25;2;2;
47741;PMS5003;33504;52.066;6.096;2024-02-23T11:24:53;2;2;
47741;PMS5003;33504;52.066;6.096;2024-02-23T11:27:20;1;0;
47741;PMS5003;33504;52.066;6.096;2024-02-23T11:29:58;1;1;
47741;PMS5003;33504;52.066;6.096;2024-02-23T11:32:34;3;2;
47741;PMS5003;33504;52.066;6.096;2024-02-23T11:35:05;2;2;
47741;PMS5003;33504;52.066;6.096;2024-02-23T11:37:33;0;0;
47741;PMS5003;33504;52.066;6.096;2024-02-23T11:40:11;2;1;
47741;PMS5003;33504;52.066;6.096;2024-02-23T11:42:39;1;1;
47741;PMS5003;33504;52.066;6.096;2024-02-23T11:45:08;1;1;
47741;PMS5003;33504;52.066;6.096;2024-02-23T11:47:36;1;1;
47741;PMS5003;33504;52.066;6.096;2024-02-23T11:50:03;1;1;
47741;PMS5003;33504;52.066;6.096;2024-02-23T11:52:33;4;2;
47741;PMS5003;33504;52.066;6.096;2024-02-23T11:54:59;2;2;
47741;PMS5003;33504;52.066;6.096;2024-02-23T11:57:26;5;3;
47741;PMS5003;33504;52.066;6.096;2024-02-23T11:59:54;2;1;
47741;PMS5003;33504;52.066;6.096;2024-02-23T12:02:21;1;1;
47741;PMS5003;33504;52.066;6.096;2024-02-23T12:04:49;4;2;
47741;PMS5003;33504;52.066;6.096;2024-02-23T12:07:16;2;1;
47741;PMS5003;33504;52.066;6.096;2024-02-23T12:09:44;2;2;
47741;PMS5003;33504;52.066;6.096;2024-02-23T12:12:12;3;2;
47741;PMS5003;33504;52.066;6.096;2024-02-23T12:14:39;2;1;
47741;PMS5003;33504;52.066;6.096;2024-02-23T12:17:07;3;2;
47741;PMS5003;33504;52.066;6.096;2024-02-23T12:19:37;3;3;
47741;PMS5003;33504;52.066;6.096;2024-02-23T12:22:04;2;1;
47741;PMS5003;33504;52.066;6.096;2024-02-23T12:24:31;5;3;
47741;PMS5003;33504;52.066;6.096;2024-02-23T12:26:58;3;2;
47741;PMS5003;33504;52.066;6.096;2024-02-23T12:29:25;2;2;
47741;PMS5003;33504;52.066;6.096;2024-02-23T12:32:01;2;2;
47741;PMS5003;33504;52.066;6.096;2024-02-23T12:34:30;5;4;
47741;PMS5003;33504;52.066;6.096;2024-02-23T12:36:57;2;2;
47741;PMS5003;33504;52.066;6.096;2024-02-23T12:39:24;1;1;
47741;PMS5003;33504;52.066;6.096;2024-02-23T12:41:51;8;5;
47741;PMS5003;33504;52.066;6.096;2024-02-23T12:44:18;5;4;
47741;PMS5003;33504;52.066;6.096;2024-02-23T12:46:45;5;5;
47741;PMS5003;33504;52.066;6.096;2024-02-23T12:49:11;5;4;
47741;PMS5003;33504;52.066;6.096;2024-02-23T12:51:38;5;5;
47741;PMS5003;33504;52.066;6.096;2024-02-23T12:54:06;2;2;
47741;PMS5003;33504;52.066;6.096;2024-02-23T12:56:34;4;3;
47741;PMS5003;33504;52.066;6.096;2024-02-23T12:59:00;6;5;
47741;PMS5003;33504;52.066;6.096;2024-02-23T13:01:27;4;4;
47741;PMS5003;33504;52.066;6.096;2024-02-23T13:03:54;4;4;
47741;PMS5003;33504;52.066;6.096;2024-02-23T13:06:21;3;3;
47741;PMS5003;33504;52.066;6.096;2024-02-23T13:08:48;1;1;
47741;PMS5003;33504;52.066;6.096;2024-02-23T13:11:15;4;4;
47741;PMS5003;33504;52.066;6.096;2024-02-23T13:13:41;4;4;
47741;PMS5003;33504;52.066;6.096;2024-02-23T13:16:08;2;2;
47741;PMS5003;33504;52.066;6.096;2024-02-23T13:18:37;3;2;
47741;PMS5003;33504;52.066;6.096;2024-02-23T13:21:04;3;3;
47741;PMS5003;33504;52.066;6.096;2024-02-23T13:23:31;2;2;
47741;PMS5003;33504;52.066;6.096;2024-02-23T13:25:58;3;2;
47741;PMS5003;33504;52.066;6.096;2024-02-23T13:28:25;2;2;
47741;PMS5003;33504;52.066;6.096;2024-02-23T13:30:52;4;4;
47741;PMS5003;33504;52.066;6.096;2024-02-23T13:33:18;4;4;
47741;PMS5003;33504;52.066;6.096;2024-02-23T13:35:45;2;2;
47741;PMS5003;33504;52.066;6.096;2024-02-23T13:38:12;2;2;
47741;PMS5003;33504;52.066;6.096;2024-02-23T13:40:39;4;3;
47741;PMS5003;33504;52.066;6.096;2024-02-23T13:43:06;4;3;
47741;PMS5003;33504;52.066;6.096;2024-02-23T13:45:33;2;2;
47741;PMS5003;33504;52.066;6.096;2024-02-23T13:48:13;5;5;
47741;PMS5003;33504;52.066;6.096;2024-02-23T13:50:40;23;22;
47741;PMS5003;33504;52.066;6.096;2024-02-23T13:53:07;4;3;
47741;PMS5003;33504;52.066;6.096;2024-02-23T13:55:34;3;3;
47741;PMS5003;33504;52.066;6.096;2024-02-23T13:58:01;4;3;
47741;PMS5003;33504;52.066;6.096;2024-02-23T14:00:28;3;3;
47741;PMS5003;33504;52.066;6.096;2024-02-23T14:02:54;3;3;
47741;PMS5003;33504;52.066;6.096;2024-02-23T14:05:22;4;4;
47741;PMS5003;33504;52.066;6.096;2024-02-23T14:07:49;3;3;
47741;PMS5003;33504;52.066;6.096;2024-02-23T14:10:16;7;4;
47741;PMS5003;33504;52.066;6.096;2024-02-23T14:12:43;3;3;
47741;PMS5003;33504;52.066;6.096;2024-02-23T14:15:10;3;2;
47741;PMS5003;33504;52.066;6.096;2024-02-23T14:17:37;6;5;
47741;PMS5003;33504;52.066;6.096;2024-02-23T14:20:05;4;3;
47741;PMS5003;33504;52.066;6.096;2024-02-23T14:22:33;8;7;
47741;PMS5003;33504;52.066;6.096;2024-02-23T14:25:00;3;2;
47741;PMS5003;33504;52.066;6.096;2024-02-23T14:27:27;6;5;
47741;PMS5003;33504;52.066;6.096;2024-02-23T14:29:55;5;4;
47741;PMS5003;33504;52.066;6.096;2024-02-23T14:32:22;4;4;
47741;PMS5003;33504;52.066;6.096;2024-02-23T14:34:50;6;6;
47741;PMS5003;33504;52.066;6.096;2024-02-23T14:37:17;6;4;
47741;PMS5003;33504;52.066;6.096;2024-02-23T14:39:44;3;2;
47741;PMS5003;33504;52.066;6.096;2024-02-23T14:42:12;4;3;
47741;PMS5003;33504;52.066;6.096;2024-02-23T14:44:39;3;3;
47741;PMS5003;33504;52.066;6.096;2024-02-23T14:47:05;9;8;
47741;PMS5003;33504;52.066;6.096;2024-02-23T14:49:34;4;3;
47741;PMS5003;33504;52.066;6.096;2024-02-23T14:52:02;2;2;
47741;PMS5003;33504;52.066;6.096;2024-02-23T14:54:29;4;4;
47741;PMS5003;33504;52.066;6.096;2024-02-23T14:56:56;3;2;
47741;PMS5003;33504;52.066;6.096;2024-02-23T14:59:23;3;3;
47741;PMS5003;33504;52.066;6.096;2024-02-23T15:01:50;4;3;
47741;PMS5003;33504;52.066;6.096;2024-02-23T15:04:18;2;2;
47741;PMS5003;33504;52.066;6.096;2024-02-23T15:06:45;2;2;
47741;PMS5003;33504;52.066;6.096;2024-02-23T15:09:13;6;6;
47741;PMS5003;33504;52.066;6.096;2024-02-23T15:11:40;6;5;
47741;PMS5003;33504;52.066;6.096;2024-02-23T15:14:07;6;4;
47741;PMS5003;33504;52.066;6.096;2024-02-23T15:16:34;7;7;
47741;PMS5003;33504;52.066;6.096;2024-02-23T15:19:01;6;6;
47741;PMS5003;33504;52.066;6.096;2024-02-23T15:21:29;4;4;
47741;PMS5003;33504;52.066;6.096;2024-02-23T15:23:56;5;4;
47741;PMS5003;33504;52.066;6.096;2024-02-23T15:26:23;6;4;
47741;PMS5003;33504;52.066;6.096;2024-02-23T15:28:50;4;4;
47741;PMS5003;33504;52.066;6.096;2024-02-23T15:31:18;2;2;
47741;PMS5003;33504;52.066;6.096;2024-02-23T15:33:45;8;6;
47741;PMS5003;33504;52.066;6.096;2024-02-23T15:36:12;5;5;
47741;PMS5003;33504;52.066;6.096;2024-02-23T15:38:39;7;7;
47741;PMS5003;33504;52.066;6.096;2024-02-23T15:41:06;7;6;
47741;PMS5003;33504;52.066;6.096;2024-02-23T15:43:32;6;6;
47741;PMS5003;33504;52.066;6.096;2024-02-23T15:45:59;6;4;
47741;PMS5003;33504;52.066;6.096;2024-02-23T15:48:27;3;3;
47741;PMS5003;33504;52.066;6.096;2024-02-23T15:50:54;4;4;
47741;PMS5003;33504;52.066;6.096;2024-02-23T15:53:21;10;9;
47741;PMS5003;33504;52.066;6.096;2024-02-23T15:55:48;4;4;
47741;PMS5003;33504;52.066;6.096;2024-02-23T15:58:15;7;6;
47741;PMS5003;33504;52.066;6.096;2024-02-23T16:00:42;4;4;
47741;PMS5003;33504;52.066;6.096;2024-02-23T16:03:09;6;6;
47741;PMS5003;33504;52.066;6.096;2024-02-23T16:05:36;14;14;
47741;PMS5003;33504;52.066;6.096;2024-02-23T16:08:03;5;5;
47741;PMS5003;33504;52.066;6.096;2024-02-23T16:10:30;6;6;
47741;PMS5003;33504;52.066;6.096;2024-02-23T16:12:57;5;5;
47741;PMS5003;33504;52.066;6.096;2024-02-23T16:15:25;4;3;
47741;PMS5003;33504;52.066;6.096;2024-02-23T16:17:52;5;5;
47741;PMS5003;33504;52.066;6.096;2024-02-23T16:20:19;9;8;
47741;PMS5003;33504;52.066;6.096;2024-02-23T16:22:46;6;6;
47741;PMS5003;33504;52.066;6.096;2024-02-23T16:25:14;6;5;
47741;PMS5003;33504;52.066;6.096;2024-02-23T16:27:41;5;5;
47741;PMS5003;33504;52.066;6.096;2024-02-23T16:30:09;4;4;
47741;PMS5003;33504;52.066;6.096;2024-02-23T16:32:37;8;7;
47741;PMS5003;33504;52.066;6.096;2024-02-23T16:35:04;6;5;
47741;PMS5003;33504;52.066;6.096;2024-02-23T16:37:32;2;2;
47741;PMS5003;33504;52.066;6.096;2024-02-23T16:39:59;4;4;
47741;PMS5003;33504;52.066;6.096;2024-02-23T16:42:26;9;7;
47741;PMS5003;33504;52.066;6.096;2024-02-23T16:44:52;16;15;
47741;PMS5003;33504;52.066;6.096;2024-02-23T16:47:19;8;8;
47741;PMS5003;33504;52.066;6.096;2024-02-23T16:49:47;6;5;
47741;PMS5003;33504;52.066;6.096;2024-02-23T16:52:14;18;18;